createdAt,value
2022-12-18T00:00:24.636Z,-5.66
2022-12-18T00:03:16.200Z,-5.66
2022-12-18T00:05:49.467Z,-5.65
2022-12-18T00:08:22.540Z,-5.63
2022-12-18T00:10:52.664Z,-5.63
2022-12-18T00:13:21.945Z,-5.62
2022-12-18T00:15:50.505Z,-5.59
2022-12-18T00:18:20.664Z,-5.56
2022-12-18T00:20:49.491Z,-5.51
2022-12-18T00:23:18.085Z,-5.49
2022-12-18T00:25:50.125Z,-5.47
2022-12-18T00:28:18.733Z,-5.45
2022-12-18T00:30:51.783Z,-5.41
2022-12-18T00:33:20.370Z,-5.39
2022-12-18T00:35:48.850Z,-5.40
2022-12-18T00:38:17.433Z,-5.40
2022-12-18T00:40:46.742Z,-5.38
2022-12-18T00:43:17.588Z,-5.35
2022-12-18T00:45:46.880Z,-5.34
2022-12-18T00:48:15.875Z,-5.32
2022-12-18T00:50:44.895Z,-5.29
2022-12-18T00:53:14.206Z,-5.26
2022-12-18T00:55:46.982Z,-5.25
2022-12-18T00:58:17.496Z,-5.26
2022-12-18T01:00:48.339Z,-5.26
2022-12-18T01:03:17.618Z,-5.27
2022-12-18T01:05:46.611Z,-5.27
2022-12-18T01:08:15.128Z,-5.26
2022-12-18T01:10:48.328Z,-5.24
2022-12-18T01:13:16.963Z,-5.23
2022-12-18T01:15:50.951Z,-5.22
2022-12-18T01:18:19.557Z,-5.21
2022-12-18T01:20:48.355Z,-5.21
2022-12-18T01:23:16.931Z,-5.19
2022-12-18T01:25:47.846Z,-5.16
2022-12-18T01:28:16.880Z,-5.14
2022-12-18T01:30:48.445Z,-5.12
2022-12-18T01:33:17.240Z,-5.09
2022-12-18T01:35:48.591Z,-5.08
2022-12-18T01:38:18.267Z,-5.09
2022-12-18T01:40:47.614Z,-5.11
2022-12-18T01:43:16.249Z,-5.11
2022-12-18T01:45:47.136Z,-5.13
2022-12-18T01:48:15.749Z,-5.15
2022-12-18T01:50:47.649Z,-5.16
2022-12-18T01:53:22.333Z,-5.15
2022-12-18T01:55:57.806Z,-5.15
2022-12-18T01:58:34.036Z,-5.14
2022-12-18T02:01:02.795Z,-5.15
2022-12-18T02:03:34.889Z,-5.15
2022-12-18T02:06:19.072Z,-5.16
2022-12-18T02:09:00.069Z,-5.17
2022-12-18T02:11:40.869Z,-5.18
2022-12-18T02:14:19.364Z,-5.18
2022-12-18T02:16:59.348Z,-5.18
2022-12-18T02:19:48.726Z,-5.17
2022-12-18T02:22:22.251Z,-5.16
2022-12-18T02:25:01.580Z,-5.15
2022-12-18T02:27:33.255Z,-5.15
2022-12-18T02:30:04.460Z,-5.16
2022-12-18T02:32:39.305Z,-5.19
2022-12-18T02:35:14.577Z,-5.18
2022-12-18T02:37:47.348Z,-5.16
2022-12-18T02:40:20.845Z,-5.14
2022-12-18T02:42:49.776Z,-5.13
2022-12-18T02:45:20.043Z,-5.11
2022-12-18T02:47:52.960Z,-5.12
2022-12-18T02:50:31.410Z,-5.14
2022-12-18T02:53:11.083Z,-5.15
2022-12-18T02:55:59.559Z,-5.14
2022-12-18T02:58:35.347Z,-5.12
2022-12-18T03:01:14.888Z,-5.10
2022-12-18T03:03:49.900Z,-5.07
2022-12-18T03:06:25.029Z,-5.06
2022-12-18T03:09:01.456Z,-5.06
2022-12-18T03:11:52.669Z,-5.05
2022-12-18T03:14:24.994Z,-5.05
2022-12-18T03:17:00.618Z,-5.06
2022-12-18T03:19:33.016Z,-5.07
2022-12-18T03:22:05.993Z,-5.08
2022-12-18T03:24:43.168Z,-5.07
2022-12-18T03:27:18.411Z,-5.07
2022-12-18T03:29:52.784Z,-5.07
2022-12-18T03:32:29.557Z,-5.05
2022-12-18T03:35:06.006Z,-5.07
2022-12-18T03:37:38.615Z,-5.10
2022-12-18T03:40:11.661Z,-5.11
2022-12-18T03:42:47.602Z,-5.11
2022-12-18T03:45:24.271Z,-5.11
2022-12-18T03:48:03.203Z,-5.11
2022-12-18T03:50:46.512Z,-5.11
2022-12-18T03:53:25.731Z,-5.14
2022-12-18T03:55:56.225Z,-5.16
2022-12-18T03:58:30.130Z,-5.18
2022-12-18T04:01:18.813Z,-5.19
2022-12-18T04:03:50.710Z,-5.17
2022-12-18T04:06:21.961Z,-5.14
2022-12-18T04:08:51.130Z,-5.13
2022-12-18T04:11:23.027Z,-5.15
2022-12-18T04:13:56.115Z,-5.20
2022-12-18T04:16:26.174Z,-5.24
2022-12-18T04:18:56.886Z,-5.25
2022-12-18T04:21:26.582Z,-5.26
2022-12-18T04:23:55.670Z,-5.27
2022-12-18T04:26:25.116Z,-5.25
2022-12-18T04:29:14.086Z,-5.27
2022-12-18T04:31:42.737Z,-5.28
2022-12-18T04:34:12.823Z,-5.33
2022-12-18T04:36:47.733Z,-5.41
2022-12-18T04:39:16.776Z,-5.47
2022-12-18T04:41:49.867Z,-5.51
2022-12-18T04:44:18.452Z,-5.55
2022-12-18T04:46:58.402Z,-5.60
2022-12-18T04:49:27.122Z,-5.65
2022-12-18T04:51:56.510Z,-5.70
2022-12-18T04:54:26.348Z,-5.76
2022-12-18T04:56:58.935Z,-5.82
2022-12-18T04:59:30.646Z,-5.91
2022-12-18T05:02:07.661Z,-6.00
2022-12-18T05:04:39.528Z,-6.07
2022-12-18T05:07:08.482Z,-6.13
2022-12-18T05:09:37.055Z,-6.18
2022-12-18T05:12:08.965Z,-6.22
2022-12-18T05:14:37.692Z,-6.26
2022-12-18T05:17:06.352Z,-6.30
2022-12-18T05:19:35.000Z,-6.32
2022-12-18T05:22:09.430Z,-6.36
2022-12-18T05:24:39.558Z,-6.39
2022-12-18T05:27:08.929Z,-6.43
2022-12-18T05:29:37.911Z,-6.47
2022-12-18T05:32:06.706Z,-6.52
2022-12-18T05:34:35.407Z,-6.56
2022-12-18T05:37:04.468Z,-6.58
2022-12-18T05:39:33.480Z,-6.57
2022-12-18T05:42:02.184Z,-6.60
2022-12-18T05:44:30.845Z,-6.63
2022-12-18T05:47:02.561Z,-6.65
2022-12-18T05:49:31.714Z,-6.65
2022-12-18T05:52:00.674Z,-6.62
2022-12-18T05:54:29.582Z,-6.59
2022-12-18T05:56:58.378Z,-6.55
2022-12-18T05:59:28.392Z,-6.50
2022-12-18T06:01:57.531Z,-6.46
2022-12-18T06:04:28.838Z,-6.44
2022-12-18T06:06:57.626Z,-6.41
2022-12-18T06:09:26.767Z,-6.40
2022-12-18T06:11:55.609Z,-6.38
2022-12-18T06:14:24.221Z,-6.35
2022-12-18T06:16:56.051Z,-6.34
2022-12-18T06:19:27.357Z,-6.33
2022-12-18T06:21:58.167Z,-6.30
2022-12-18T06:24:31.253Z,-6.27
2022-12-18T06:27:02.810Z,-6.24
2022-12-18T06:29:31.700Z,-6.20
2022-12-18T06:32:06.944Z,-6.16
2022-12-18T06:34:39.333Z,-6.10
2022-12-18T06:37:08.492Z,-6.06
2022-12-18T06:39:37.312Z,-6.05
2022-12-18T06:42:06.581Z,-6.03
2022-12-18T06:44:35.776Z,-6.01
2022-12-18T06:47:04.577Z,-5.99
2022-12-18T06:49:33.050Z,-5.96
2022-12-18T06:52:06.432Z,-5.94
2022-12-18T06:54:35.040Z,-5.90
2022-12-18T06:57:04.356Z,-5.88
2022-12-18T06:59:32.954Z,-5.86
2022-12-18T07:02:01.719Z,-5.82
2022-12-18T07:04:33.574Z,-5.78
2022-12-18T07:07:02.203Z,-5.74
2022-12-18T07:09:33.928Z,-5.70
2022-12-18T07:12:02.561Z,-5.65
2022-12-18T07:14:36.924Z,-5.61
2022-12-18T07:17:06.515Z,-5.58
2022-12-18T07:19:36.541Z,-5.55
2022-12-18T07:22:05.295Z,-5.52
2022-12-18T07:24:36.675Z,-5.49
2022-12-18T07:27:05.428Z,-5.48
2022-12-18T07:29:36.692Z,-5.45
2022-12-18T07:32:06.102Z,-5.46
2022-12-18T07:34:38.142Z,-5.46
2022-12-18T07:37:06.856Z,-5.43
2022-12-18T07:39:40.620Z,-5.38
2022-12-18T07:42:30.282Z,-5.30
2022-12-18T07:44:59.851Z,-5.24
2022-12-18T07:47:28.953Z,-5.21
2022-12-18T07:49:58.147Z,-5.14
2022-12-18T07:52:28.017Z,-5.09
2022-12-18T07:54:56.648Z,-5.13
2022-12-18T07:57:49.549Z,-5.12
2022-12-18T08:00:16.814Z,-5.05
2022-12-18T08:02:45.709Z,-5.02
2022-12-18T08:05:14.577Z,-4.97
2022-12-18T08:07:43.447Z,-4.93
2022-12-18T08:10:14.820Z,-4.90
2022-12-18T08:12:43.877Z,-4.85
2022-12-18T08:15:13.533Z,-4.78
2022-12-18T08:17:45.282Z,-4.68
2022-12-18T08:20:15.351Z,-4.61
2022-12-18T08:22:43.881Z,-4.58
2022-12-18T08:25:15.084Z,-4.54
2022-12-18T08:27:45.872Z,-4.52
2022-12-18T08:30:15.442Z,-4.48
2022-12-18T08:32:44.684Z,-4.50
2022-12-18T08:35:18.653Z,-4.50
2022-12-18T08:37:48.508Z,-4.50
2022-12-18T08:40:19.819Z,-4.48
2022-12-18T08:43:07.897Z,-4.47
2022-12-18T08:45:36.949Z,-4.46
2022-12-18T08:48:21.872Z,-4.44
2022-12-18T08:50:57.261Z,-4.46
2022-12-18T08:53:29.234Z,-4.48
2022-12-18T08:56:01.801Z,-4.48
2022-12-18T08:58:32.927Z,-4.45
2022-12-18T09:01:09.289Z,-4.39
2022-12-18T09:03:39.640Z,-4.27
2022-12-18T09:06:16.256Z,-4.18
2022-12-18T09:08:46.093Z,-4.15
2022-12-18T09:11:32.208Z,-4.15
2022-12-18T09:14:05.762Z,-4.16
2022-12-18T09:16:47.896Z,-4.17
2022-12-18T09:19:17.348Z,-4.12
2022-12-18T09:21:48.482Z,-4.01
2022-12-18T09:24:18.738Z,-3.93
2022-12-18T09:26:57.615Z,-3.88
2022-12-18T09:29:27.129Z,-3.89
2022-12-18T09:32:00.408Z,-3.86
2022-12-18T09:34:33.525Z,-3.79
2022-12-18T09:37:02.552Z,-3.74
2022-12-18T09:39:31.386Z,-3.68
2022-12-18T09:42:00.272Z,-3.65
2022-12-18T09:44:33.842Z,-3.64
2022-12-18T09:47:12.332Z,-3.67
2022-12-18T09:49:44.908Z,-3.69
2022-12-18T09:52:22.559Z,-3.72
2022-12-18T09:55:04.494Z,-3.73
2022-12-18T09:57:44.947Z,-3.69
2022-12-18T10:00:20.272Z,-3.65
2022-12-18T10:02:51.252Z,-3.59
2022-12-18T10:05:30.004Z,-3.47
2022-12-18T10:08:07.455Z,-3.33
2022-12-18T10:10:50.653Z,-3.23
2022-12-18T10:13:32.666Z,-3.21
2022-12-18T10:16:15.702Z,-3.23
2022-12-18T10:19:05.761Z,-3.34
2022-12-18T10:21:46.720Z,-3.34
2022-12-18T10:24:23.301Z,-3.30
2022-12-18T10:27:15.059Z,-3.25
2022-12-18T10:29:50.144Z,-3.23
2022-12-18T10:32:21.388Z,-3.25
2022-12-18T10:34:56.684Z,-3.27
2022-12-18T10:37:28.956Z,-3.34
2022-12-18T10:40:22.785Z,-3.40
2022-12-18T10:43:08.184Z,-3.33
2022-12-18T10:45:58.632Z,-3.24
2022-12-18T10:48:28.877Z,-3.22
2022-12-18T10:51:10.858Z,-3.18
2022-12-18T10:53:56.068Z,-3.19
2022-12-18T10:56:31.655Z,-3.19
2022-12-18T10:59:04.671Z,-3.16
2022-12-18T11:02:00.116Z,-3.16
2022-12-18T11:04:31.881Z,-3.13
2022-12-18T11:07:03.284Z,-3.08
2022-12-18T11:09:34.331Z,-3.12
2022-12-18T11:12:15.769Z,-3.18
2022-12-18T11:14:48.546Z,-3.17
2022-12-18T11:17:26.482Z,-3.13
2022-12-18T11:19:57.172Z,-3.11
2022-12-18T11:22:28.460Z,-3.10
2022-12-18T11:25:30.759Z,-3.02
2022-12-18T11:27:54.056Z,-2.86
2022-12-18T11:30:27.188Z,-2.72
2022-12-18T11:32:59.320Z,-2.57
2022-12-18T11:35:43.516Z,-2.42
2022-12-18T11:38:24.559Z,-2.29
2022-12-18T11:41:03.211Z,-2.25
2022-12-18T11:43:38.907Z,-2.19
2022-12-18T11:46:19.808Z,-2.16
2022-12-18T11:48:50.823Z,-2.15
2022-12-18T11:51:28.107Z,-2.19
2022-12-18T11:54:13.113Z,-2.32
2022-12-18T11:56:47.043Z,-2.49
2022-12-18T11:59:32.184Z,-2.60
2022-12-18T12:02:43.145Z,-2.68
2022-12-18T12:05:25.365Z,-2.59
2022-12-18T12:07:58.960Z,-2.46
2022-12-18T12:10:42.767Z,-2.42
2022-12-18T12:13:28.201Z,-2.37
2022-12-18T12:16:16.818Z,-2.35
2022-12-18T12:19:02.409Z,-2.40
2022-12-18T12:21:41.348Z,-2.46
2022-12-18T12:24:38.901Z,-2.54
2022-12-18T12:27:16.395Z,-2.61
2022-12-18T12:29:57.212Z,-2.74
2022-12-18T12:32:50.228Z,-2.85
2022-12-18T12:36:04.166Z,-2.93
2022-12-18T12:38:38.177Z,-2.99
2022-12-18T12:41:29.704Z,-3.06
2022-12-18T12:44:02.689Z,-3.15
2022-12-18T12:46:49.293Z,-3.19
2022-12-18T12:49:22.027Z,-3.21
2022-12-18T12:51:59.935Z,-3.19
2022-12-18T12:54:29.379Z,-3.21
2022-12-18T12:57:09.167Z,-3.18
2022-12-18T12:59:52.744Z,-3.15
2022-12-18T13:02:29.450Z,-3.15
2022-12-18T13:05:07.667Z,-3.18
2022-12-18T13:07:51.065Z,-3.25
2022-12-18T13:10:33.538Z,-3.33
2022-12-18T13:13:05.344Z,-3.39
2022-12-18T13:15:46.192Z,-3.40
2022-12-18T13:18:23.468Z,-3.44
2022-12-18T13:21:04.125Z,-3.45
2022-12-18T13:23:37.827Z,-3.46
2022-12-18T13:26:31.783Z,-3.46
2022-12-18T13:29:06.532Z,-3.41
2022-12-18T13:32:20.861Z,-3.38
2022-12-18T13:35:29.198Z,-3.43
2022-12-18T13:37:58.558Z,-3.48
2022-12-18T13:41:04.820Z,-3.50
2022-12-18T13:43:43.224Z,-3.55
2022-12-18T13:46:28.174Z,-3.60
2022-12-18T13:49:01.349Z,-3.66
2022-12-18T13:51:32.779Z,-3.73
2022-12-18T13:54:03.557Z,-3.75
2022-12-18T13:56:34.760Z,-3.73
2022-12-18T13:59:15.206Z,-3.75
2022-12-18T14:01:55.131Z,-3.78
2022-12-18T14:04:29.393Z,-3.78
2022-12-18T14:07:04.169Z,-3.80
2022-12-18T14:09:41.831Z,-3.84
2022-12-18T14:12:45.062Z,-3.92
2022-12-18T14:15:34.793Z,-3.93
2022-12-18T14:18:21.507Z,-3.91
2022-12-18T14:20:53.175Z,-3.95
2022-12-18T14:23:30.756Z,-4.02
2022-12-18T14:26:05.362Z,-4.06
2022-12-18T14:28:47.708Z,-4.09
2022-12-18T14:31:22.185Z,-4.16
2022-12-18T14:33:54.787Z,-4.26
2022-12-18T14:36:28.956Z,-4.31
2022-12-18T14:39:00.376Z,-4.32
2022-12-18T14:41:30.032Z,-4.30
2022-12-18T14:44:15.266Z,-4.25
2022-12-18T14:46:50.678Z,-4.19
2022-12-18T14:49:26.107Z,-4.14
2022-12-18T14:51:57.209Z,-4.08
2022-12-18T14:54:27.798Z,-4.04
2022-12-18T14:57:25.098Z,-4.02
2022-12-18T14:59:56.912Z,-4.00
2022-12-18T15:02:27.962Z,-4.03
2022-12-18T15:05:12.984Z,-4.08
2022-12-18T15:07:44.447Z,-4.15
2022-12-18T15:10:17.246Z,-4.18
2022-12-18T15:12:48.797Z,-4.21
2022-12-18T15:15:46.600Z,-4.27
2022-12-18T15:18:18.429Z,-4.32
2022-12-18T15:20:51.816Z,-4.38
2022-12-18T15:23:24.035Z,-4.42
2022-12-18T15:25:58.883Z,-4.44
2022-12-18T15:28:37.679Z,-4.44
2022-12-18T15:31:24.125Z,-4.39
2022-12-18T15:34:18.347Z,-4.34
2022-12-18T15:36:51.105Z,-4.30
2022-12-18T15:39:22.700Z,-4.28
2022-12-18T15:42:09.909Z,-4.28
2022-12-18T15:44:39.592Z,-4.33
2022-12-18T15:47:16.549Z,-4.34
2022-12-18T15:49:56.061Z,-4.41
2022-12-18T15:52:26.438Z,-4.48
2022-12-18T15:58:12.845Z,-4.54
2022-12-18T16:00:50.675Z,-4.54
2022-12-18T16:03:22.221Z,-4.50
2022-12-18T16:05:53.361Z,-4.46
2022-12-18T16:08:23.121Z,-4.45
2022-12-18T16:10:52.199Z,-4.52
2022-12-18T16:13:22.037Z,-4.54
2022-12-18T16:15:52.345Z,-4.55
2022-12-18T16:18:22.312Z,-4.58
2022-12-18T16:20:51.695Z,-4.65
2022-12-18T16:23:22.463Z,-4.70
2022-12-18T16:25:52.817Z,-4.72
2022-12-18T16:28:21.879Z,-4.73
2022-12-18T16:30:51.840Z,-4.75
2022-12-18T16:33:21.350Z,-4.81
2022-12-18T16:35:54.190Z,-4.83
2022-12-18T16:38:22.804Z,-4.84
2022-12-18T16:41:12.974Z,-4.84
2022-12-18T16:43:42.112Z,-4.84
2022-12-18T16:46:13.784Z,-4.80
2022-12-18T16:48:52.902Z,-4.81
2022-12-18T16:51:23.781Z,-4.86
2022-12-18T16:53:52.942Z,-4.90
2022-12-18T16:56:25.106Z,-4.93
2022-12-18T16:58:55.376Z,-4.96
2022-12-18T17:01:25.270Z,-4.97
2022-12-18T17:03:58.616Z,-5.00
2022-12-18T17:06:29.242Z,-5.06
2022-12-18T17:09:04.770Z,-5.11
2022-12-18T17:11:35.560Z,-5.17
2022-12-18T17:14:08.112Z,-5.18
2022-12-18T17:16:36.861Z,-5.16
2022-12-18T17:19:12.100Z,-5.14
2022-12-18T17:21:52.360Z,-5.14
2022-12-18T17:24:34.375Z,-5.13
2022-12-18T17:27:04.615Z,-5.14
2022-12-18T17:29:34.340Z,-5.16
2022-12-18T17:32:03.982Z,-5.16
2022-12-18T17:34:32.841Z,-5.19
2022-12-18T17:37:02.695Z,-5.23
2022-12-18T17:39:31.916Z,-5.25
2022-12-18T17:42:01.680Z,-5.30
2022-12-18T17:44:31.166Z,-5.36
2022-12-18T17:47:00.451Z,-5.37
2022-12-18T17:49:31.022Z,-5.41
2022-12-18T17:51:59.768Z,-5.45
2022-12-18T17:54:28.525Z,-5.49
2022-12-18T17:56:57.713Z,-5.53
2022-12-18T17:59:28.663Z,-5.55
2022-12-18T18:01:57.889Z,-5.59
2022-12-18T18:04:27.202Z,-5.64
2022-12-18T18:06:55.771Z,-5.70
2022-12-18T18:09:26.278Z,-5.75
2022-12-18T18:12:13.206Z,-5.76
2022-12-18T18:14:42.387Z,-5.79
2022-12-18T18:17:13.783Z,-5.80
2022-12-18T18:19:43.526Z,-5.77
2022-12-18T18:22:15.629Z,-5.72
2022-12-18T18:24:47.481Z,-5.69
2022-12-18T18:27:16.481Z,-5.71
2022-12-18T18:29:45.634Z,-5.74
2022-12-18T18:32:14.512Z,-5.79
2022-12-18T18:34:45.741Z,-5.84
2022-12-18T18:37:14.628Z,-5.89
2022-12-18T18:39:43.776Z,-5.93
2022-12-18T18:42:14.665Z,-5.96
2022-12-18T18:44:48.766Z,-5.99
2022-12-18T18:47:19.072Z,-6.03
2022-12-18T18:49:50.580Z,-6.05
2022-12-18T18:52:19.364Z,-6.07
2022-12-18T18:55:11.491Z,-6.08
2022-12-18T18:57:37.899Z,-6.09
2022-12-18T19:00:09.675Z,-6.09
2022-12-18T19:02:44.106Z,-6.13
2022-12-18T19:05:13.994Z,-6.17
2022-12-18T19:07:42.897Z,-6.21
2022-12-18T19:10:14.544Z,-6.30
2022-12-18T19:13:01.636Z,-6.37
2022-12-18T19:15:31.160Z,-6.44
2022-12-18T19:18:01.119Z,-6.46
2022-12-18T19:20:36.715Z,-6.48
2022-12-18T19:23:05.925Z,-6.51
2022-12-18T19:25:42.541Z,-6.48
2022-12-18T19:28:21.864Z,-6.47
2022-12-18T19:31:01.291Z,-6.46
2022-12-18T19:33:43.031Z,-6.44
2022-12-18T19:36:19.221Z,-6.42
2022-12-18T19:38:49.176Z,-6.43
2022-12-18T19:41:29.041Z,-6.43
2022-12-18T19:43:58.604Z,-6.44
2022-12-18T19:46:29.272Z,-6.46
2022-12-18T19:49:00.727Z,-6.48
2022-12-18T19:51:31.314Z,-6.48
2022-12-18T19:54:02.056Z,-6.47
2022-12-18T19:56:33.307Z,-6.43
2022-12-18T19:59:03.314Z,-6.39
2022-12-18T20:01:32.884Z,-6.35
2022-12-18T20:04:01.916Z,-6.32
2022-12-18T20:06:33.729Z,-6.32
2022-12-18T20:09:07.645Z,-6.32
2022-12-18T20:11:36.977Z,-6.32
2022-12-18T20:14:22.673Z,-6.33
2022-12-18T20:16:54.463Z,-6.37
2022-12-18T20:19:26.794Z,-6.40
2022-12-18T20:21:56.294Z,-6.39
2022-12-18T20:24:25.257Z,-6.36
2022-12-18T20:26:55.516Z,-6.33
2022-12-18T20:29:28.502Z,-6.31
2022-12-18T20:31:57.569Z,-6.29
2022-12-18T20:34:27.102Z,-6.28
2022-12-18T20:36:56.344Z,-6.27
2022-12-18T20:39:27.048Z,-6.27
2022-12-18T20:41:56.486Z,-6.29
2022-12-18T20:44:29.292Z,-6.33
2022-12-18T20:46:59.830Z,-6.36
2022-12-18T20:49:30.702Z,-6.38
2022-12-18T20:52:01.900Z,-6.38
2022-12-18T20:54:30.743Z,-6.37
2022-12-18T20:56:59.505Z,-6.32
2022-12-18T20:59:28.556Z,-6.26
2022-12-18T21:01:57.269Z,-6.22
2022-12-18T21:04:26.502Z,-6.21
2022-12-18T21:06:59.100Z,-6.20
2022-12-18T21:09:38.460Z,-6.19
2022-12-18T21:12:35.156Z,-6.22
2022-12-18T21:15:22.843Z,-6.27
2022-12-18T21:17:57.887Z,-6.31
2022-12-18T21:20:26.828Z,-6.36
2022-12-18T21:22:56.379Z,-6.37
2022-12-18T21:25:29.041Z,-6.38
2022-12-18T21:27:57.702Z,-6.35
2022-12-18T21:30:27.217Z,-6.33
2022-12-18T21:32:56.922Z,-6.29
2022-12-18T21:35:25.577Z,-6.25
2022-12-18T21:37:57.234Z,-6.22
2022-12-18T21:40:27.748Z,-6.21
2022-12-18T21:43:18.883Z,-6.24
2022-12-18T21:45:51.417Z,-6.30
2022-12-18T21:48:23.248Z,-6.35
2022-12-18T21:50:52.240Z,-6.39
2022-12-18T21:53:20.996Z,-6.43
2022-12-18T21:55:58.491Z,-6.47
2022-12-18T21:58:27.643Z,-6.49
2022-12-18T22:00:56.402Z,-6.50
2022-12-18T22:03:25.270Z,-6.48
2022-12-18T22:06:07.622Z,-6.46
2022-12-18T22:08:43.829Z,-6.43
2022-12-18T22:11:14.988Z,-6.39
2022-12-18T22:13:45.100Z,-6.37
2022-12-18T22:16:16.636Z,-6.37
2022-12-18T22:18:45.551Z,-6.36
2022-12-18T22:21:28.985Z,-6.36
2022-12-18T22:23:59.743Z,-6.36
2022-12-18T22:26:35.028Z,-6.38
2022-12-18T22:29:25.774Z,-6.42
2022-12-18T22:32:03.740Z,-6.44
2022-12-18T22:34:36.826Z,-6.45
2022-12-18T22:37:05.755Z,-6.42
2022-12-18T22:39:34.560Z,-6.40
2022-12-18T22:42:06.168Z,-6.38
2022-12-18T22:44:34.794Z,-6.36
2022-12-18T22:47:06.353Z,-6.34
2022-12-18T22:49:38.099Z,-6.36
2022-12-18T22:52:09.090Z,-6.37
2022-12-18T22:54:38.508Z,-6.38
2022-12-18T22:57:07.055Z,-6.42
2022-12-18T22:59:36.036Z,-6.46
2022-12-18T23:02:05.106Z,-6.47
2022-12-18T23:04:39.317Z,-6.47
2022-12-18T23:07:08.021Z,-6.47
2022-12-18T23:09:37.096Z,-6.45
2022-12-18T23:12:07.361Z,-6.44
2022-12-18T23:14:36.229Z,-6.44
2022-12-18T23:17:07.451Z,-6.47
2022-12-18T23:19:37.109Z,-6.51
2022-12-18T23:22:11.804Z,-6.55
2022-12-18T23:24:40.685Z,-6.58
2022-12-18T23:27:11.425Z,-6.62
2022-12-18T23:29:40.847Z,-6.65
2022-12-18T23:32:09.299Z,-6.64
2022-12-18T23:34:41.162Z,-6.62
2022-12-18T23:37:24.963Z,-6.61
2022-12-18T23:40:05.323Z,-6.58
2022-12-18T23:42:33.852Z,-6.59
2022-12-18T23:45:03.917Z,-6.61
2022-12-18T23:47:38.388Z,-6.66
2022-12-18T23:50:08.871Z,-6.69
2022-12-18T23:52:37.514Z,-6.74
2022-12-18T23:55:10.302Z,-6.81
2022-12-18T23:57:39.484Z,-6.86
